Time;durP1;ratioP1;P1;durP2;ratioP2;P2;SDS_P1;SDS_P2;PMS_P1;PMS_P2;Temp;Humidity;BMP_temperature;BMP_pressure;BME280_temperature;BME280_humidity;BME280_pressure;Samples;Min_cycle;Max_cycle;Signal;HPM_P1;HPM_P2
2023/01/24 00:01:10;;;;;;;19.88;12.40;;;3.10;99.90;;;;;;5011876;28;20053;-68
2023/01/24 00:03:40;;;;;;;20.88;12.35;;;3.00;99.90;;;;;;5007569;28;20129;-69
2023/01/24 00:06:08;;;;;;;20.67;12.25;;;3.00;99.90;;;;;;4994465;28;20508;-69
2023/01/24 00:08:36;;;;;;;19.55;12.25;;;3.00;99.90;;;;;;5010836;28;20148;-68
2023/01/24 00:11:06;;;;;;;20.10;12.15;;;3.00;99.90;;;;;;5010280;28;20033;-69
2023/01/24 00:13:35;;;;;;;19.95;11.52;;;3.00;99.90;;;;;;4994441;28;20074;-68
2023/01/24 00:16:09;;;;;;;20.45;11.95;;;3.00;99.90;;;;;;5012146;28;20080;-70
2023/01/24 00:18:36;;;;;;;17.42;10.15;;;3.10;99.90;;;;;;5012115;28;20373;-68
2023/01/24 00:21:12;;;;;;;20.45;11.07;;;3.10;99.90;;;;;;4994117;28;20046;-69
2023/01/24 00:23:45;;;;;;;18.95;11.23;;;3.00;99.90;;;;;;4975064;28;20133;-71
2023/01/24 00:26:14;;;;;;;21.08;11.55;;;3.00;99.90;;;;;;5002500;28;20489;-69
2023/01/24 00:28:44;;;;;;;21.38;11.60;;;3.00;99.90;;;;;;5005171;28;20069;-68
2023/01/24 00:31:14;;;;;;;21.23;11.48;;;3.00;99.90;;;;;;4975223;28;20461;-69
2023/01/24 00:33:42;;;;;;;22.92;12.65;;;3.00;99.90;;;;;;4993797;28;20092;-69
2023/01/24 00:36:11;;;;;;;18.60;11.77;;;3.00;99.90;;;;;;4994103;28;20415;-68
2023/01/24 00:38:38;;;;;;;20.23;12.25;;;3.00;99.90;;;;;;4998020;28;20489;-68
2023/01/24 00:41:06;;;;;;;21.88;12.35;;;3.00;99.90;;;;;;5009974;28;20065;-69
2023/01/24 00:43:34;;;;;;;19.83;11.57;;;2.90;99.90;;;;;;5010362;28;20444;-69
2023/01/24 00:46:04;;;;;;;20.73;11.60;;;2.90;99.90;;;;;;5010512;28;20137;-68
2023/01/24 00:48:32;;;;;;;21.40;11.85;;;2.90;99.90;;;;;;5010562;28;20077;-68
2023/01/24 00:50:59;;;;;;;21.80;12.40;;;2.90;99.90;;;;;;4994127;28;20490;-68
2023/01/24 00:53:28;;;;;;;19.55;11.57;;;2.90;99.90;;;;;;5010239;28;20049;-68
2023/01/24 00:55:56;;;;;;;19.17;11.52;;;2.90;99.90;;;;;;5011274;28;20042;-68
2023/01/24 00:58:23;;;;;;;19.83;12.20;;;2.90;99.90;;;;;;4994155;28;20056;-68
2023/01/24 01:00:55;;;;;;;19.52;11.05;;;2.90;99.90;;;;;;5011343;28;20034;-68
2023/01/24 01:03:24;;;;;;;19.27;11.07;;;2.90;99.90;;;;;;5009951;28;20049;-67
2023/01/24 01:06:01;;;;;;;23.30;12.27;;;2.90;99.90;;;;;;5011187;28;20034;-68
2023/01/24 01:08:28;;;;;;;21.17;12.30;;;2.80;99.90;;;;;;4993808;28;20038;-68
2023/01/24 01:10:55;;;;;;;19.77;11.02;;;2.80;99.90;;;;;;4993941;28;20562;-68
2023/01/24 01:13:23;;;;;;;21.05;11.88;;;2.80;99.90;;;;;;5011429;28;20124;-69
2023/01/24 01:15:51;;;;;;;23.25;11.57;;;2.80;99.90;;;;;;5010007;28;20046;-69
2023/01/24 01:18:18;;;;;;;22.45;11.90;;;2.80;99.90;;;;;;5010861;28;20145;-69
2023/01/24 01:20:50;;;;;;;21.80;12.35;;;2.80;99.90;;;;;;5009355;28;20514;-68
2023/01/24 01:23:18;;;;;;;22.35;12.02;;;2.80;99.90;;;;;;5009913;28;20046;-69
2023/01/24 01:25:45;;;;;;;23.52;12.02;;;2.80;99.90;;;;;;5009880;28;20068;-69
2023/01/24 01:28:13;;;;;;;21.85;11.98;;;2.80;99.90;;;;;;5009474;28;20045;-69
2023/01/24 01:30:40;;;;;;;21.52;11.68;;;2.80;99.90;;;;;;5000561;28;20086;-68
2023/01/24 01:33:07;;;;;;;20.77;11.88;;;2.80;99.90;;;;;;5011179;28;20050;-69
2023/01/24 01:35:35;;;;;;;21.50;12.02;;;2.80;99.90;;;;;;4990491;28;20507;-69
2023/01/24 01:38:02;;;;;;;21.48;11.80;;;2.80;99.90;;;;;;5022767;28;20049;-69
2023/01/24 01:40:29;;;;;;;20.83;12.20;;;2.80;99.90;;;;;;5010899;28;20037;-69
2023/01/24 01:42:58;;;;;;;19.35;11.20;;;2.80;99.90;;;;;;5009749;28;20611;-69
2023/01/24 01:45:45;;;;;;;20.42;11.65;;;2.80;99.90;;;;;;5009870;28;20496;-68
2023/01/24 01:48:27;;;;;;;22.20;12.18;;;2.80;99.90;;;;;;4998764;28;20045;-69
2023/01/24 01:51:19;;;;;;;20.25;11.32;;;2.80;99.90;;;;;;5008689;28;20152;-69
2023/01/24 01:53:56;;;;;;;19.98;11.27;;;2.80;99.90;;;;;;5015177;28;20503;-69
2023/01/24 01:56:34;;;;;;;21.17;12.25;;;2.80;99.90;;;;;;5034143;28;20037;-69
2023/01/24 01:59:09;;;;;;;20.05;11.20;;;2.80;99.90;;;;;;5031391;28;20053;-69
2023/01/24 02:01:37;;;;;;;17.98;10.88;;;2.80;99.90;;;;;;5030802;28;20543;-69
2023/01/24 02:04:12;;;;;;;20.90;11.30;;;2.80;99.90;;;;;;5016432;28;20571;-69
2023/01/24 02:06:52;;;;;;;21.90;12.43;;;2.80;99.90;;;;;;5000455;28;20177;-69
2023/01/24 02:09:26;;;;;;;20.25;10.95;;;2.80;99.90;;;;;;5000261;28;20050;-69
2023/01/24 02:11:58;;;;;;;18.58;10.23;;;2.80;99.90;;;;;;5012343;28;20041;-69
2023/01/24 02:17:20;;;;;;;20.58;10.75;;;2.80;99.90;;;;;;5013718;28;20042;-68
2023/01/24 02:20:25;;;;;;;17.85;10.65;;;2.80;99.90;;;;;;5013472;28;20129;-70
2023/01/24 02:23:23;;;;;;;17.27;10.07;;;2.80;99.90;;;;;;4995430;28;20045;-68
2023/01/24 02:25:58;;;;;;;18.77;10.85;;;2.80;99.90;;;;;;5023893;28;20232;-68
2023/01/24 02:28:26;;;;;;;19.92;10.70;;;2.80;99.90;;;;;;5013106;28;20055;-68
2023/01/24 02:30:58;;;;;;;17.02;10.77;;;2.80;99.90;;;;;;4988076;28;20054;-69
2023/01/24 02:33:25;;;;;;;18.38;11.05;;;2.80;99.90;;;;;;5001397;28;20045;-69
2023/01/24 02:36:19;;;;;;;16.77;10.23;;;2.80;99.90;;;;;;4994793;28;20057;-69
2023/01/24 02:38:54;;;;;;;19.83;11.23;;;2.70;99.90;;;;;;5008714;28;20132;-69
2023/01/24 02:41:28;;;;;;;18.73;10.60;;;2.80;99.90;;;;;;4994275;28;20117;-69
2023/01/24 02:44:01;;;;;;;17.92;10.52;;;2.70;99.90;;;;;;5007779;28;20397;-68
2023/01/24 02:46:34;;;;;;;18.67;10.07;;;2.70;99.90;;;;;;5030575;28;20049;-69
2023/01/24 02:49:06;;;;;;;16.35;10.00;;;2.70;99.90;;;;;;5013839;28;20053;-69
2023/01/24 02:54:19;;;;;;;13.20;8.75;;;2.70;99.90;;;;;;5025120;28;20060;-69
2023/01/24 02:59:32;;;;;;;16.02;8.75;;;2.70;99.90;;;;;;5008016;28;20472;-69
2023/01/24 03:02:00;;;;;;;19.00;10.68;;;2.60;99.90;;;;;;5011863;28;20038;-69
2023/01/24 03:04:27;;;;;;;16.73;10.05;;;2.60;99.90;;;;;;5013055;28;20046;-69
2023/01/24 03:06:54;;;;;;;16.58;9.80;;;2.60;99.90;;;;;;5012078;28;20084;-69
2023/01/24 03:09:33;;;;;;;18.88;10.10;;;2.70;99.90;;;;;;5012271;28;20072;-69
2023/01/24 03:34:45;;;;;;;16.33;8.73;;;2.70;99.90;;;;;;5011586;28;20053;-69
2023/01/24 03:40:10;;;;;;;16.10;8.85;;;2.60;99.90;;;;;;5010715;28;20100;-69
2023/01/24 03:42:46;;;;;;;15.33;8.13;;;2.60;99.90;;;;;;4993879;28;20536;-69
2023/01/24 03:45:16;;;;;;;16.70;9.10;;;2.60;99.90;;;;;;5013836;28;20295;-69
2023/01/24 03:48:04;;;;;;;15.43;9.05;;;2.60;99.90;;;;;;4991705;28;20030;-69
2023/01/24 03:53:28;;;;;;;15.43;8.37;;;2.60;99.90;;;;;;4974821;28;20097;-68
2023/01/24 03:55:58;;;;;;;14.32;8.75;;;2.60;99.90;;;;;;5009505;28;20065;-70
2023/01/24 03:58:29;;;;;;;16.00;8.38;;;2.60;99.90;;;;;;4999657;28;20043;-69
2023/01/24 04:00:57;;;;;;;14.52;8.77;;;2.60;99.90;;;;;;5029610;28;20037;-69
2023/01/24 04:03:44;;;;;;;14.90;8.80;;;2.60;99.90;;;;;;5030715;28;20033;-69
2023/01/24 04:06:12;;;;;;;16.48;8.90;;;2.60;99.90;;;;;;5029903;28;20057;-69
2023/01/24 04:08:39;;;;;;;14.73;8.77;;;2.60;99.90;;;;;;5012961;28;20042;-69
2023/01/24 04:11:06;;;;;;;16.52;9.18;;;2.60;99.90;;;;;;5010521;28;20050;-69
2023/01/24 04:13:34;;;;;;;15.80;9.00;;;2.60;99.90;;;;;;4994626;28;20052;-68
2023/01/24 04:16:02;;;;;;;16.85;8.68;;;2.60;99.90;;;;;;5009593;28;20131;-69
2023/01/24 04:18:44;;;;;;;14.10;7.78;;;2.60;99.90;;;;;;5010336;28;20565;-69
2023/01/24 04:21:11;;;;;;;14.85;8.23;;;2.60;99.90;;;;;;5008955;28;20042;-69
2023/01/24 04:23:39;;;;;;;15.25;8.63;;;2.60;99.90;;;;;;5009316;28;20042;-69
2023/01/24 04:26:06;;;;;;;13.90;7.95;;;2.60;99.90;;;;;;5009802;28;20149;-69
2023/01/24 04:28:34;;;;;;;12.57;7.97;;;2.70;99.90;;;;;;5012134;28;20357;-69
2023/01/24 04:31:03;;;;;;;13.95;7.25;;;2.70;99.90;;;;;;5030374;28;20046;-69
2023/01/24 04:33:48;;;;;;;14.20;7.32;;;2.70;99.90;;;;;;5016873;28;20057;-69
2023/01/24 04:36:17;;;;;;;13.13;7.63;;;2.60;99.90;;;;;;5009726;28;20048;-69
2023/01/24 04:38:44;;;;;;;13.50;7.18;;;2.60;99.90;;;;;;4974838;28;20409;-70
2023/01/24 04:41:16;;;;;;;14.95;8.57;;;2.60;99.90;;;;;;5022912;28;20051;-69
2023/01/24 04:43:44;;;;;;;11.43;7.07;;;2.60;99.90;;;;;;4997312;28;20049;-70
2023/01/24 04:46:11;;;;;;;12.52;7.50;;;2.60;99.90;;;;;;5018985;28;20046;-69
2023/01/24 04:48:52;;;;;;;12.20;6.95;;;2.60;99.90;;;;;;4994095;28;20073;-69
2023/01/24 04:51:21;;;;;;;11.70;7.13;;;2.60;99.90;;;;;;5008787;28;20425;-70
2023/01/24 04:53:49;;;;;;;13.93;7.72;;;2.60;99.90;;;;;;5010181;28;20050;-69
2023/01/24 04:56:20;;;;;;;13.68;7.43;;;2.60;99.90;;;;;;5024703;28;20045;-69
2023/01/24 04:58:48;;;;;;;14.43;7.60;;;2.60;99.90;;;;;;4997709;28;20085;-70
2023/01/24 05:01:16;;;;;;;11.52;6.85;;;2.60;99.90;;;;;;5027838;28;20033;-69
2023/01/24 05:04:05;;;;;;;11.50;6.88;;;2.60;99.90;;;;;;5031260;28;20053;-68
2023/01/24 05:06:33;;;;;;;11.13;6.80;;;2.60;99.90;;;;;;5012819;28;20566;-68
2023/01/24 05:09:01;;;;;;;10.60;6.80;;;2.60;99.90;;;;;;5009822;28;20049;-69
2023/01/24 05:11:38;;;;;;;11.63;6.57;;;2.60;99.90;;;;;;5010373;28;20513;-68
2023/01/24 05:14:09;;;;;;;10.55;6.25;;;2.60;99.90;;;;;;4977276;28;20127;-68
2023/01/24 05:16:37;;;;;;;11.75;6.70;;;2.60;99.90;;;;;;4993395;28;20050;-68
2023/01/24 05:19:05;;;;;;;10.65;6.47;;;2.60;99.90;;;;;;4993507;28;20057;-69
2023/01/24 05:21:34;;;;;;;10.35;5.80;;;2.60;99.90;;;;;;4999900;28;20499;-68
2023/01/24 05:24:03;;;;;;;9.73;6.05;;;2.60;99.90;;;;;;4980807;28;20058;-69
2023/01/24 05:26:31;;;;;;;10.60;6.35;;;2.60;99.90;;;;;;4992540;28;20072;-68
2023/01/24 05:28:59;;;;;;;11.18;6.43;;;2.60;99.90;;;;;;4991756;28;20047;-69
2023/01/24 05:31:28;;;;;;;11.02;7.05;;;2.60;99.90;;;;;;5014679;28;20469;-69
2023/01/24 05:33:55;;;;;;;10.57;6.53;;;2.60;99.90;;;;;;4993807;28;20097;-69
2023/01/24 05:36:23;;;;;;;11.05;6.07;;;2.60;99.90;;;;;;4993387;28;20054;-68
2023/01/24 05:38:51;;;;;;;9.95;6.05;;;2.60;99.90;;;;;;5043025;28;20522;-69
2023/01/24 05:41:20;;;;;;;9.98;6.20;;;2.60;99.90;;;;;;5033450;28;20137;-68
2023/01/24 05:43:50;;;;;;;12.18;7.18;;;2.60;99.90;;;;;;5001154;28;20156;-68
2023/01/24 05:46:22;;;;;;;11.47;6.70;;;2.60;99.90;;;;;;5016353;28;20053;-69
2023/01/24 05:49:00;;;;;;;13.40;6.90;;;2.60;99.90;;;;;;5031253;28;20296;-69
2023/01/24 05:51:28;;;;;;;10.25;6.40;;;2.60;99.90;;;;;;5016033;28;20033;-69
2023/01/24 05:53:55;;;;;;;12.75;7.53;;;2.70;99.90;;;;;;5001349;28;20068;-69
2023/01/24 05:56:52;;;;;;;10.98;5.63;;;2.70;99.90;;;;;;5005466;28;20538;-69
2023/01/24 05:59:19;;;;;;;16.20;9.07;;;2.60;99.90;;;;;;5022446;28;20077;-70
2023/01/24 06:01:47;;;;;;;12.18;7.10;;;2.60;99.90;;;;;;4999172;28;20046;-69
2023/01/24 06:04:16;;;;;;;16.88;6.93;;;2.60;99.90;;;;;;5015079;28;20554;-68
2023/01/24 06:06:43;;;;;;;12.13;6.85;;;2.60;99.90;;;;;;5005861;28;20084;-69
2023/01/24 06:09:11;;;;;;;11.48;6.47;;;2.70;99.90;;;;;;5013132;28;20046;-69
2023/01/24 06:11:38;;;;;;;9.02;6.00;;;2.70;99.90;;;;;;5012875;28;20556;-69
2023/01/24 06:14:11;;;;;;;9.75;5.90;;;2.70;99.90;;;;;;4997484;28;20041;-69
2023/01/24 06:16:39;;;;;;;11.80;6.63;;;2.70;99.90;;;;;;5012059;28;20050;-69
2023/01/24 06:19:07;;;;;;;13.80;8.18;;;2.70;99.90;;;;;;4979644;28;20046;-70
2023/01/24 06:21:59;;;;;;;13.25;6.50;;;2.70;99.90;;;;;;5012372;28;20070;-70
2023/01/24 06:24:28;;;;;;;10.63;6.32;;;2.70;99.90;;;;;;5015887;28;20045;-70
2023/01/24 06:27:15;;;;;;;8.50;5.38;;;2.70;99.90;;;;;;5019782;28;20062;-70
2023/01/24 06:29:43;;;;;;;9.32;5.90;;;2.70;99.90;;;;;;5013776;28;20030;-70
2023/01/24 06:32:25;;;;;;;9.40;5.60;;;2.70;99.90;;;;;;4995942;28;20149;-70
2023/01/24 06:35:06;;;;;;;9.20;5.38;;;2.80;99.90;;;;;;5013918;28;20500;-70
2023/01/24 06:37:46;;;;;;;9.68;5.15;;;2.80;99.90;;;;;;5013076;28;20136;-70
2023/01/24 06:40:19;;;;;;;8.02;5.60;;;2.80;99.90;;;;;;5012431;28;20057;-69
2023/01/24 06:42:46;;;;;;;10.00;5.60;;;2.80;99.90;;;;;;5012342;28;20477;-69
2023/01/24 06:45:14;;;;;;;9.70;5.82;;;2.80;99.90;;;;;;5011407;28;20046;-70
2023/01/24 06:47:42;;;;;;;11.88;6.70;;;2.80;99.90;;;;;;5009503;28;20046;-70
2023/01/24 06:50:15;;;;;;;12.52;6.80;;;2.80;99.90;;;;;;5010569;28;20042;-69
2023/01/24 06:52:45;;;;;;;10.88;6.22;;;2.80;99.90;;;;;;5007202;28;20049;-69
2023/01/24 06:55:13;;;;;;;9.70;6.03;;;2.80;99.90;;;;;;5011687;28;20068;-70
2023/01/24 06:57:40;;;;;;;10.35;5.93;;;2.80;99.90;;;;;;5009991;28;20377;-70
2023/01/24 07:00:08;;;;;;;10.57;5.80;;;2.90;99.90;;;;;;5009726;28;20050;-70
2023/01/24 07:02:36;;;;;;;11.15;5.97;;;2.90;99.90;;;;;;5009744;28;20524;-70
2023/01/24 07:05:03;;;;;;;12.10;6.57;;;2.90;99.90;;;;;;5011240;28;20033;-69
2023/01/24 07:07:31;;;;;;;11.00;6.07;;;2.90;99.90;;;;;;4993598;28;20042;-69
2023/01/24 07:09:58;;;;;;;10.82;5.88;;;2.90;99.90;;;;;;4994044;28;20041;-69
2023/01/24 07:12:25;;;;;;;11.50;5.60;;;2.90;99.90;;;;;;5008624;28;20485;-69
2023/01/24 07:14:52;;;;;;;11.50;6.13;;;2.90;99.90;;;;;;5012189;28;20053;-70
2023/01/24 07:17:20;;;;;;;15.82;8.25;;;2.90;99.90;;;;;;5012056;28;20034;-70
2023/01/24 07:19:48;;;;;;;11.10;6.00;;;3.00;99.90;;;;;;5012753;28;20045;-69
2023/01/24 07:22:16;;;;;;;10.35;5.88;;;3.00;99.90;;;;;;5010883;28;20132;-70
2023/01/24 07:24:44;;;;;;;11.70;7.00;;;3.00;99.90;;;;;;5011217;28;20444;-68
2023/01/24 07:27:12;;;;;;;11.35;6.32;;;3.00;99.90;;;;;;5012356;28;20088;-69
2023/01/24 07:29:39;;;;;;;11.32;5.95;;;3.00;99.90;;;;;;5012753;28;20050;-68
2023/01/24 07:32:11;;;;;;;14.60;8.27;;;3.00;99.90;;;;;;5012558;28;20443;-69
2023/01/24 07:34:38;;;;;;;14.80;7.25;;;3.00;99.90;;;;;;5011047;28;20124;-69
2023/01/24 07:37:07;;;;;;;12.23;6.72;;;3.10;99.90;;;;;;5010717;28;20465;-68
2023/01/24 07:39:35;;;;;;;10.55;5.88;;;3.10;99.90;;;;;;5012498;28;20045;-69
2023/01/24 07:42:02;;;;;;;9.40;5.88;;;3.10;99.90;;;;;;5009176;28;20747;-69
2023/01/24 07:44:29;;;;;;;11.10;6.15;;;3.10;99.90;;;;;;5012272;28;20046;-70
2023/01/24 07:46:56;;;;;;;11.15;6.38;;;3.10;99.90;;;;;;5011173;28;20072;-69
2023/01/24 07:49:24;;;;;;;10.05;6.00;;;3.10;99.90;;;;;;4995245;28;20497;-69
2023/01/24 07:51:51;;;;;;;11.65;6.70;;;3.10;99.90;;;;;;5011193;28;20050;-69
2023/01/24 07:54:19;;;;;;;12.02;6.05;;;3.20;99.90;;;;;;5010223;28;20038;-70
2023/01/24 07:56:47;;;;;;;9.90;6.00;;;3.20;99.90;;;;;;5009907;28;20065;-68
2023/01/24 07:59:15;;;;;;;11.07;6.90;;;3.20;99.90;;;;;;5005765;28;20173;-69
2023/01/24 08:01:44;;;;;;;9.63;5.88;;;3.20;99.90;;;;;;5009562;28;20317;-68
2023/01/24 08:04:11;;;;;;;9.88;5.90;;;3.20;99.90;;;;;;5008762;28;20500;-69
2023/01/24 08:07:16;;;;;;;10.32;6.18;;;3.20;99.90;;;;;;5011468;28;20030;-69
2023/01/24 08:09:27;;;;;;;9.55;5.68;;;3.30;99.90;;;;;;5007036;28;20047;-68
2023/01/24 08:11:55;;;;;;;10.73;6.20;;;3.20;99.90;;;;;;5022343;28;20089;-70
2023/01/24 08:14:23;;;;;;;10.38;6.00;;;3.20;99.90;;;;;;4990188;28;20061;-69
2023/01/24 08:16:51;;;;;;;12.30;7.22;;;3.30;99.90;;;;;;4987042;28;20473;-70
2023/01/24 08:19:21;;;;;;;9.73;6.20;;;3.30;99.90;;;;;;5008816;28;20440;-70
2023/01/24 08:22:08;;;;;;;11.63;6.53;;;3.30;99.90;;;;;;4993214;28;20497;-69
2023/01/24 08:24:37;;;;;;;11.48;6.57;;;3.30;99.90;;;;;;4993232;28;20461;-69
2023/01/24 08:27:05;;;;;;;12.50;7.07;;;3.30;99.90;;;;;;5005612;28;20042;-68
2023/01/24 08:29:33;;;;;;;11.02;6.80;;;3.40;99.90;;;;;;5005067;28;20369;-69
2023/01/24 08:32:00;;;;;;;10.30;6.05;;;3.40;99.90;;;;;;4986751;28;20042;-69
2023/01/24 08:34:28;;;;;;;13.02;7.22;;;3.40;99.90;;;;;;5007371;28;20458;-69
2023/01/24 08:36:55;;;;;;;12.68;7.28;;;3.40;99.90;;;;;;5008780;28;20389;-69
2023/01/24 08:39:25;;;;;;;12.65;6.95;;;3.50;99.90;;;;;;5007604;28;20046;-68
2023/01/24 08:41:55;;;;;;;9.80;6.03;;;3.50;99.90;;;;;;5012153;28;20416;-69
2023/01/24 08:44:22;;;;;;;12.80;7.47;;;3.50;99.90;;;;;;5010216;28;20041;-68
2023/01/24 08:46:50;;;;;;;9.77;6.15;;;3.50;99.90;;;;;;5009546;28;20126;-68
2023/01/24 08:49:18;;;;;;;10.88;6.70;;;3.50;99.90;;;;;;4994795;28;20068;-69
2023/01/24 08:51:47;;;;;;;12.48;7.75;;;3.50;99.90;;;;;;4999988;28;20085;-69
2023/01/24 08:54:17;;;;;;;12.32;6.95;;;3.60;99.90;;;;;;5018630;28;20548;-70
2023/01/24 08:56:47;;;;;;;12.40;7.22;;;3.60;99.90;;;;;;5007994;28;20476;-68
2023/01/24 08:59:15;;;;;;;9.02;5.80;;;3.60;99.90;;;;;;5014356;28;20053;-69
2023/01/24 09:01:42;;;;;;;10.98;6.55;;;3.60;99.90;;;;;;5026660;28;20443;-68
2023/01/24 09:04:11;;;;;;;10.10;6.38;;;3.60;99.90;;;;;;5013712;28;20133;-68
2023/01/24 09:06:39;;;;;;;9.93;6.35;;;3.60;99.90;;;;;;5023012;28;20030;-70
2023/01/24 09:09:08;;;;;;;10.70;6.70;;;3.60;99.90;;;;;;5016761;28;20042;-70
2023/01/24 09:11:36;;;;;;;10.30;6.05;;;3.70;99.90;;;;;;5011237;28;20069;-69
2023/01/24 09:14:03;;;;;;;15.13;8.35;;;3.80;99.90;;;;;;5010194;28;20046;-68
2023/01/24 09:16:31;;;;;;;10.40;6.18;;;3.80;99.90;;;;;;5017036;28;20049;-68
2023/01/24 09:18:58;;;;;;;12.52;7.20;;;3.80;99.90;;;;;;5008989;28;20580;-70
2023/01/24 09:21:26;;;;;;;11.88;7.10;;;3.80;99.90;;;;;;4992098;28;20069;-69
2023/01/24 09:23:54;;;;;;;13.02;8.10;;;3.80;99.90;;;;;;5005134;28;20125;-70
2023/01/24 09:26:22;;;;;;;12.07;7.45;;;3.90;99.90;;;;;;5008350;28;20133;-69
2023/01/24 09:28:50;;;;;;;12.65;7.50;;;3.90;99.90;;;;;;5009219;28;20123;-69
2023/01/24 09:31:17;;;;;;;12.18;7.45;;;4.00;99.90;;;;;;5008478;28;20034;-68
2023/01/24 09:33:46;;;;;;;12.73;7.50;;;4.00;99.90;;;;;;5005752;28;20460;-71
2023/01/24 09:36:25;;;;;;;13.35;7.35;;;4.10;99.90;;;;;;5010683;28;20485;-70
2023/01/24 09:38:53;;;;;;;12.32;7.25;;;4.10;99.90;;;;;;5017234;28;20116;-70
2023/01/24 09:42:03;;;;;;;11.48;6.90;;;4.10;99.90;;;;;;4994243;28;20064;-69
2023/01/24 09:45:18;;;;;;;13.27;8.15;;;4.10;99.90;;;;;;4999624;28;20134;-70
2023/01/24 09:48:02;;;;;;;11.02;6.88;;;4.20;99.90;;;;;;4997388;28;20069;-70
2023/01/24 09:50:42;;;;;;;13.43;7.78;;;4.20;99.90;;;;;;4991185;28;20046;-69
2023/01/24 09:53:36;;;;;;;14.35;9.30;;;4.30;99.90;;;;;;5008434;28;20436;-71
2023/01/24 09:56:05;;;;;;;13.70;7.83;;;4.30;99.90;;;;;;5008556;28;20049;-68
2023/01/24 09:58:39;;;;;;;15.13;7.68;;;4.30;99.90;;;;;;4987666;28;20149;-69
2023/01/24 10:01:12;;;;;;;12.60;7.55;;;4.40;99.90;;;;;;5013731;28;20392;-69
2023/01/24 10:03:41;;;;;;;12.18;7.35;;;4.40;99.90;;;;;;5010413;28;20049;-70
2023/01/24 10:06:21;;;;;;;13.57;7.65;;;4.40;99.90;;;;;;5013090;28;20049;-70
2023/01/24 10:09:14;;;;;;;10.52;6.72;;;4.50;99.90;;;;;;5012412;28;20063;-70
2023/01/24 10:11:41;;;;;;;13.50;8.07;;;4.50;99.90;;;;;;5007903;28;20046;-69
2023/01/24 10:14:49;;;;;;;15.13;8.57;;;4.50;99.90;;;;;;4975043;28;20165;-69
2023/01/24 10:17:35;;;;;;;11.73;7.05;;;4.60;99.90;;;;;;5008842;28;20556;-70
2023/01/24 10:20:15;;;;;;;20.08;11.32;;;4.60;99.90;;;;;;5010512;28;20477;-69
2023/01/24 10:23:04;;;;;;;17.75;9.32;;;4.60;99.90;;;;;;5008821;28;20039;-69
2023/01/24 10:26:05;;;;;;;14.38;8.95;;;4.60;99.90;;;;;;4980308;28;20098;-70
2023/01/24 10:28:37;;;;;;;13.67;7.13;;;4.60;99.90;;;;;;5027109;28;20345;-70
2023/01/24 10:31:11;;;;;;;;;;;4.60;99.90;;;;;;4995069;28;20335;-70
2023/01/24 10:33:47;;;;;;;11.50;7.00;;;4.70;99.90;;;;;;5012117;28;19933;-68
2023/01/24 10:36:35;;;;;;;10.77;6.50;;;4.60;99.90;;;;;;4994667;28;20057;-70
2023/01/24 10:39:02;;;;;;;12.88;6.47;;;4.70;99.90;;;;;;5012016;28;20046;-69
2023/01/24 10:41:33;;;;;;;10.57;7.32;;;4.60;99.90;;;;;;4995221;28;20411;-68
2023/01/24 10:44:28;;;;;;;10.07;6.37;;;4.70;99.90;;;;;;5010267;28;20050;-68
2023/01/24 10:47:33;;;;;;;12.75;6.70;;;4.60;99.90;;;;;;5030168;28;20052;-69
2023/01/24 10:50:06;;;;;;;12.13;7.03;;;4.60;99.90;;;;;;5031507;28;20082;-69
2023/01/24 10:52:34;;;;;;;10.75;6.35;;;4.70;99.90;;;;;;5031173;28;20136;-69
2023/01/24 10:55:05;;;;;;;11.25;6.88;;;4.70;99.90;;;;;;5014450;28;20132;-69
2023/01/24 10:57:44;;;;;;;10.38;6.75;;;4.80;99.90;;;;;;5004427;28;20060;-69
2023/01/24 11:00:29;;;;;;;10.30;6.32;;;4.90;99.90;;;;;;5003239;28;20037;-68
2023/01/24 11:03:02;;;;;;;10.60;6.32;;;4.90;99.90;;;;;;5016174;28;20121;-69
2023/01/24 11:05:57;;;;;;;16.48;8.15;;;4.90;99.90;;;;;;4995062;28;20061;-69
2023/01/24 11:08:36;;;;;;;15.23;8.65;;;5.00;99.90;;;;;;4995209;28;20154;-70
2023/01/24 11:11:20;;;;;;;13.90;7.00;;;4.90;99.90;;;;;;5011941;28;20123;-68
2023/01/24 11:13:49;;;;;;;11.10;6.82;;;5.00;99.90;;;;;;5011010;28;20042;-70
2023/01/24 11:16:17;;;;;;;15.27;6.70;;;5.00;99.90;;;;;;4993212;28;20050;-70
2023/01/24 11:19:00;;;;;;;10.65;6.80;;;5.00;99.90;;;;;;4995411;28;20046;-70
2023/01/24 11:21:29;;;;;;;12.75;7.82;;;4.80;99.90;;;;;;5009573;28;20069;-69
2023/01/24 11:24:04;;;;;;;12.02;6.68;;;4.90;99.90;;;;;;5013210;28;20513;-69
2023/01/24 11:26:35;;;;;;;14.25;7.70;;;4.90;99.90;;;;;;5010930;28;20042;-68
2023/01/24 11:29:16;;;;;;;12.48;7.40;;;4.90;99.90;;;;;;5009928;28;20454;-69
2023/01/24 11:32:19;;;;;;;13.27;7.47;;;5.00;99.90;;;;;;5010838;28;20057;-69
2023/01/24 11:35:20;;;;;;;13.68;8.57;;;5.00;99.90;;;;;;4995257;28;20074;-69
2023/01/24 11:38:16;;;;;;;16.15;9.02;;;5.10;99.90;;;;;;4981813;28;20034;-69
2023/01/24 11:40:52;;;;;;;12.57;7.72;;;5.00;99.90;;;;;;4954005;28;20046;-69
2023/01/24 11:43:24;;;;;;;13.93;8.38;;;5.00;99.90;;;;;;4989225;28;20061;-69
2023/01/24 11:46:21;;;;;;;12.65;8.18;;;5.00;99.90;;;;;;4979563;28;20138;-68
2023/01/24 11:49:09;;;;;;;14.05;8.18;;;5.10;99.90;;;;;;4990021;28;20373;-68
2023/01/24 11:51:55;;;;;;;13.02;7.97;;;5.10;99.90;;;;;;4987276;28;20050;-69
2023/01/24 11:54:28;;;;;;;16.23;8.73;;;5.10;99.90;;;;;;4988688;28;20629;-69
2023/01/24 11:57:23;;;;;;;12.13;8.23;;;5.30;99.90;;;;;;4956410;28;20518;-68
2023/01/24 12:00:25;;;;;;;12.48;7.85;;;5.20;99.90;;;;;;4958825;28;20066;-68
2023/01/24 12:03:13;;;;;;;14.25;8.18;;;5.20;99.90;;;;;;4988736;28;20469;-68
2023/01/24 12:06:06;;;;;;;21.15;10.77;;;5.10;99.90;;;;;;4966776;28;20528;-69
2023/01/24 12:09:04;;;;;;;14.60;8.45;;;5.10;99.90;;;;;;4992687;28;20050;-69
2023/01/24 12:11:38;;;;;;;13.68;8.10;;;5.00;99.90;;;;;;5002233;28;20496;-69
2023/01/24 12:14:17;;;;;;;11.93;6.90;;;5.10;99.90;;;;;;4994346;28;20054;-69
2023/01/24 12:17:22;;;;;;;11.25;7.72;;;5.20;99.90;;;;;;5010865;28;20100;-69
2023/01/24 12:20:32;;;;;;;10.95;7.38;;;5.20;99.90;;;;;;5024712;28;20457;-70
2023/01/24 12:23:11;;;;;;;12.48;6.82;;;5.10;99.90;;;;;;4998205;28;20480;-69
2023/01/24 12:25:44;;;;;;;14.40;8.80;;;5.10;99.90;;;;;;5010560;28;20089;-69
2023/01/24 12:28:25;;;;;;;16.02;7.75;;;5.10;99.90;;;;;;5012079;28;20042;-70
2023/01/24 12:30:57;;;;;;;12.30;7.53;;;5.00;99.90;;;;;;5010701;28;20041;-70
2023/01/24 12:33:33;;;;;;;;;;;5.00;99.90;;;;;;5012126;28;20116;-70
2023/01/24 12:36:11;;;;;;;17.95;7.80;;;4.90;99.90;;;;;;5011460;28;19921;-69
2023/01/24 12:38:45;;;;;;;12.40;8.20;;;4.90;99.90;;;;;;5002669;28;20042;-69
2023/01/24 12:41:35;;;;;;;13.98;7.78;;;4.80;99.90;;;;;;5003100;28;20501;-69
2023/01/24 12:44:25;;;;;;;14.80;8.85;;;4.80;99.90;;;;;;5009215;28;20038;-69
2023/01/24 12:47:27;;;;;;;12.05;8.05;;;4.80;99.90;;;;;;4998407;28;20157;-69
2023/01/24 12:50:19;;;;;;;15.02;8.90;;;4.80;99.90;;;;;;5009165;28;20038;-69
2023/01/24 12:53:22;;;;;;;13.52;8.63;;;4.70;99.90;;;;;;5010223;28;20145;-70
2023/01/24 12:56:10;;;;;;;14.77;8.60;;;4.70;99.90;;;;;;5009963;28;20461;-68
2023/01/24 12:58:43;;;;;;;16.77;8.70;;;4.70;99.90;;;;;;5009981;28;20057;-70
2023/01/24 13:01:16;;;;;;;22.80;10.07;;;4.70;99.90;;;;;;5010057;28;20050;-69
2023/01/24 13:04:11;;;;;;;13.88;8.98;;;4.60;99.90;;;;;;5006742;28;20094;-69
2023/01/24 13:06:41;;;;;;;14.98;9.50;;;4.60;99.90;;;;;;4993643;28;20054;-69
2023/01/24 13:09:42;;;;;;;16.88;9.90;;;4.60;99.90;;;;;;4994517;28;20501;-69
2023/01/24 13:12:21;;;;;;;17.80;9.23;;;4.70;99.90;;;;;;5004496;28;20125;-68
2023/01/24 13:14:59;;;;;;;13.48;8.00;;;4.70;99.90;;;;;;5006763;28;20137;-69
2023/01/24 13:17:39;;;;;;;15.88;9.40;;;4.70;99.90;;;;;;4984496;28;20050;-68
2023/01/24 13:20:22;;;;;;;14.05;9.15;;;4.70;99.90;;;;;;5010953;28;20128;-69
2023/01/24 13:22:56;;;;;;;15.90;8.90;;;4.70;99.90;;;;;;5009874;28;20050;-69
2023/01/24 13:25:35;;;;;;;14.73;8.18;;;4.70;99.90;;;;;;5011260;28;20065;-68
2023/01/24 13:28:05;;;;;;;12.98;8.30;;;4.70;99.90;;;;;;4981800;28;20050;-69
2023/01/24 13:30:46;;;;;;;15.13;8.40;;;4.60;99.90;;;;;;5010009;28;20487;-69
2023/01/24 13:33:19;;;;;;;16.95;8.73;;;4.70;99.90;;;;;;5009956;28;20116;-68
2023/01/24 13:35:49;;;;;;;15.23;8.57;;;4.60;99.90;;;;;;5011051;28;20073;-68
2023/01/24 13:38:23;;;;;;;14.65;9.13;;;4.60;99.90;;;;;;5011643;28;20386;-69
2023/01/24 13:40:59;;;;;;;16.05;8.82;;;4.50;99.90;;;;;;5010095;28;20037;-68
2023/01/24 13:43:55;;;;;;;16.02;8.82;;;4.50;99.90;;;;;;5011190;28;20037;-67
2023/01/24 13:46:41;;;;;;;11.85;7.95;;;4.50;99.90;;;;;;5009661;28;20049;-69
2023/01/24 13:49:27;;;;;;;13.05;8.43;;;4.50;99.90;;;;;;5010576;28;20056;-68
2023/01/24 13:51:56;;;;;;;16.77;9.45;;;4.60;99.90;;;;;;5014962;28;20448;-69
2023/01/24 13:54:37;;;;;;;16.52;8.82;;;4.50;99.90;;;;;;5012171;28;20046;-68
2023/01/24 13:57:16;;;;;;;14.38;8.40;;;4.40;99.90;;;;;;5012672;28;20386;-69
2023/01/24 14:00:08;;;;;;;16.92;9.25;;;4.40;99.90;;;;;;5011673;28;20044;-69